createdAt,value
2022-12-05T00:00:15.644Z,-7.30
2022-12-05T00:02:17.560Z,-7.30
2022-12-05T00:04:19.985Z,-7.30
2022-12-05T00:06:23.114Z,-7.40
2022-12-05T00:08:25.001Z,-7.30
2022-12-05T00:48:21.655Z,-7.20
2022-12-05T00:50:23.488Z,-7.30
2022-12-05T00:52:25.351Z,-7.30
2022-12-05T00:54:27.256Z,-7.30
2022-12-05T00:56:30.766Z,-7.30
2022-12-05T00:58:33.495Z,-7.30
2022-12-05T01:00:35.436Z,-7.20
2022-12-05T01:02:37.304Z,-7.30
2022-12-05T01:04:39.268Z,-7.30
2022-12-05T01:06:42.390Z,-7.30
2022-12-05T01:08:44.634Z,-7.30
2022-12-05T01:10:56.673Z,-7.30
2022-12-05T01:12:59.230Z,-7.30
2022-12-05T01:15:01.119Z,-7.30
2022-12-05T01:17:03.156Z,-7.30
2022-12-05T01:19:12.781Z,-7.30
2022-12-05T01:21:14.679Z,-7.20
2022-12-05T01:23:16.871Z,-7.20
2022-12-05T01:25:18.786Z,-7.30
2022-12-05T01:27:20.650Z,-7.30
2022-12-05T01:29:24.584Z,-7.20
2022-12-05T01:31:30.718Z,-7.20
2022-12-05T01:33:32.855Z,-7.10
2022-12-05T01:35:36.553Z,-6.90
2022-12-05T01:37:38.442Z,-7.00
2022-12-05T01:39:40.307Z,-7.00
2022-12-05T01:41:45.731Z,-7.00
2022-12-05T01:44:06.527Z,-7.10
2022-12-05T01:46:08.442Z,-7.10
2022-12-05T01:48:19.450Z,-7.10
2022-12-05T01:50:21.476Z,-7.10
2022-12-05T01:52:27.484Z,-6.90
2022-12-05T01:54:30.143Z,-7.00
2022-12-05T01:56:33.480Z,-7.00
2022-12-05T01:58:38.894Z,-7.00
2022-12-05T02:00:40.733Z,-7.00
2022-12-05T02:02:48.942Z,-7.00
2022-12-05T02:05:18.487Z,-7.00
2022-12-05T02:07:20.449Z,-7.00
2022-12-05T02:09:23.373Z,-6.90
2022-12-05T02:11:27.974Z,-6.90
2022-12-05T02:13:35.612Z,-7.00
2022-12-05T02:15:53.861Z,-7.00
2022-12-05T02:18:04.358Z,-7.00
2022-12-05T02:20:18.468Z,-7.10
2022-12-05T02:22:52.836Z,-7.10
2022-12-05T02:25:19.543Z,-7.00
2022-12-05T02:27:36.299Z,-6.80
2022-12-05T02:30:24.690Z,-7.00
2022-12-05T02:32:47.749Z,-7.10
2022-12-05T02:35:14.132Z,-7.00
2022-12-05T02:37:26.414Z,-7.00
2022-12-05T02:39:53.790Z,-7.10
2022-12-05T02:42:08.993Z,-7.00
2022-12-05T02:44:16.452Z,-6.90
2022-12-05T02:46:23.041Z,-6.90
2022-12-05T02:48:28.861Z,-7.00
2022-12-05T02:50:35.426Z,-7.00
2022-12-05T02:52:37.739Z,-7.00
2022-12-05T02:54:42.764Z,-7.00
2022-12-05T02:56:46.520Z,-7.00
2022-12-05T02:58:55.854Z,-6.90
2022-12-05T03:00:58.848Z,-6.90
2022-12-05T03:03:01.108Z,-7.00
2022-12-05T03:05:39.869Z,-7.00
2022-12-05T03:07:46.850Z,-7.00
2022-12-05T03:10:16.720Z,-7.00
2022-12-05T03:12:34.262Z,-7.00
2022-12-05T03:14:44.229Z,-7.00
2022-12-05T03:16:51.023Z,-7.00
2022-12-05T03:18:58.603Z,-7.10
2022-12-05T03:21:05.863Z,-7.20
2022-12-05T03:23:39.982Z,-7.30
2022-12-05T03:25:52.664Z,-7.20
2022-12-05T03:28:06.340Z,-7.30
2022-12-05T03:30:14.689Z,-7.40
2022-12-05T03:32:43.289Z,-7.30
2022-12-05T03:35:02.846Z,-7.30
2022-12-05T03:37:11.185Z,-7.40
2022-12-05T03:39:23.878Z,-7.40
2022-12-05T03:41:33.034Z,-7.40
2022-12-05T03:44:15.872Z,-7.50
2022-12-05T03:46:27.096Z,-7.60
2022-12-05T03:48:56.423Z,-7.60
2022-12-05T03:51:00.264Z,-7.60
2022-12-05T03:53:25.256Z,-7.60
2022-12-05T03:55:30.153Z,-7.80
2022-12-05T03:57:50.575Z,-7.90
2022-12-05T03:59:58.290Z,-7.90
2022-12-05T04:02:04.416Z,-7.90
2022-12-05T04:04:18.857Z,-8.10
2022-12-05T04:06:31.926Z,-8.10
2022-12-05T04:08:39.533Z,-8.10
2022-12-05T04:10:50.241Z,-8.20
2022-12-05T04:12:55.238Z,-8.20
2022-12-05T04:15:06.256Z,-8.30
2022-12-05T04:17:53.669Z,-8.30
2022-12-05T04:20:20.152Z,-8.30
2022-12-05T04:22:24.161Z,-8.40
2022-12-05T04:24:49.645Z,-8.50
2022-12-05T04:27:04.973Z,-8.40
2022-12-05T04:29:14.745Z,-8.50
2022-12-05T04:31:33.980Z,-8.50
2022-12-05T04:33:54.202Z,-8.50
2022-12-05T04:36:05.801Z,-8.50
2022-12-05T04:38:17.577Z,-8.50
2022-12-05T04:40:28.390Z,-8.60
2022-12-05T04:42:32.664Z,-8.50
2022-12-05T04:44:40.289Z,-8.60
2022-12-05T04:46:44.917Z,-8.50
2022-12-05T04:48:52.595Z,-8.60
2022-12-05T04:50:56.254Z,-8.70
2022-12-05T04:53:00.726Z,-8.60
2022-12-05T04:55:05.619Z,-8.70
2022-12-05T04:57:18.740Z,-8.70
2022-12-05T04:59:20.960Z,-8.70
2022-12-05T05:01:29.259Z,-8.70
2022-12-05T05:03:45.044Z,-8.70
2022-12-05T05:05:49.887Z,-8.70
2022-12-05T05:07:53.930Z,-8.60
2022-12-05T05:09:56.880Z,-8.70
2022-12-05T05:11:58.971Z,-8.70
2022-12-05T05:14:01.572Z,-8.70
2022-12-05T05:16:03.783Z,-8.70
2022-12-05T05:18:05.767Z,-8.70
2022-12-05T05:20:27.522Z,-8.70
2022-12-05T05:22:29.483Z,-8.70
2022-12-05T05:24:31.373Z,-8.70
2022-12-05T05:26:41.507Z,-8.60
2022-12-05T05:28:43.733Z,-8.60
2022-12-05T05:30:45.661Z,-8.60
2022-12-05T05:32:47.992Z,-8.70
2022-12-05T05:34:49.899Z,-8.60
2022-12-05T05:36:53.100Z,-8.60
2022-12-05T05:38:57.838Z,-8.50
2022-12-05T05:40:59.803Z,-8.60
2022-12-05T05:43:01.700Z,-8.50
2022-12-05T05:45:03.962Z,-8.60
2022-12-05T05:47:05.899Z,-8.50
2022-12-05T05:49:07.765Z,-8.40
2022-12-05T05:51:12.060Z,-8.40
2022-12-05T05:53:14.079Z,-8.40
2022-12-05T05:55:15.994Z,-8.20
2022-12-05T05:57:20.556Z,-8.20
2022-12-05T05:59:22.656Z,-8.40
2022-12-05T08:12:51.516Z,-6.00
2022-12-05T08:14:53.346Z,-5.70
2022-12-05T08:16:55.313Z,-5.70
2022-12-05T08:19:06.399Z,-5.70
2022-12-05T08:21:11.039Z,-5.60
2022-12-05T08:23:13.005Z,-5.60
2022-12-05T08:25:14.900Z,-5.60
2022-12-05T08:27:16.841Z,-5.60
2022-12-05T08:29:21.817Z,-5.50
2022-12-05T08:31:25.104Z,-5.40
2022-12-05T08:33:27.042Z,-5.40
2022-12-05T08:35:29.077Z,-5.40
2022-12-05T08:37:31.020Z,-5.50
2022-12-05T08:39:38.180Z,-5.50
2022-12-05T08:41:40.973Z,-5.50
2022-12-05T08:43:43.904Z,-5.50
2022-12-05T08:45:53.053Z,-5.40
2022-12-05T08:47:57.049Z,-5.50
2022-12-05T08:49:59.444Z,-5.30
2022-12-05T08:52:01.595Z,-5.20
2022-12-05T08:54:05.239Z,-5.10
2022-12-05T08:56:09.179Z,-5.30
2022-12-05T08:58:11.380Z,-5.30
2022-12-05T09:00:17.159Z,-4.90
2022-12-05T09:02:19.232Z,-4.90
2022-12-05T09:04:21.324Z,-4.50
2022-12-05T09:06:25.159Z,-4.80
2022-12-05T09:08:27.069Z,-4.80
2022-12-05T09:10:29.148Z,-4.70
2022-12-05T09:12:31.032Z,-4.60
2022-12-05T09:14:33.215Z,-4.50
2022-12-05T09:16:39.280Z,-4.40
2022-12-05T09:18:46.982Z,-4.30
2022-12-05T09:20:49.066Z,-4.70
2022-12-05T09:22:55.052Z,-4.70
2022-12-05T09:24:57.166Z,-4.60
2022-12-05T09:26:59.174Z,-5.00
2022-12-05T09:29:02.411Z,-4.70
2022-12-05T09:31:19.358Z,-4.60
2022-12-05T09:33:23.726Z,-4.50
2022-12-05T09:35:25.605Z,-4.20
2022-12-05T09:37:42.668Z,-4.00
2022-12-05T09:39:45.289Z,-4.00
2022-12-05T09:42:14.080Z,-3.80
2022-12-05T09:44:36.137Z,-3.80
2022-12-05T09:47:08.403Z,-3.70
2022-12-05T09:49:12.529Z,-3.60
2022-12-05T09:51:14.645Z,-3.60
2022-12-05T09:53:30.939Z,-3.60
2022-12-05T09:55:49.497Z,-4.00
2022-12-05T09:57:56.833Z,-3.80
2022-12-05T10:00:00.884Z,-3.80
2022-12-05T10:02:45.170Z,-4.30
2022-12-05T10:04:57.021Z,-3.90
2022-12-05T10:07:31.904Z,-3.70
2022-12-05T10:10:11.924Z,-3.80
2022-12-05T10:12:15.329Z,-3.70
2022-12-05T10:14:40.651Z,-3.60
2022-12-05T10:16:57.024Z,-3.60
2022-12-05T10:19:07.136Z,-3.50
2022-12-05T10:21:14.852Z,-3.60
2022-12-05T10:23:55.923Z,-3.50
2022-12-05T10:26:03.473Z,-3.50
2022-12-05T10:28:19.288Z,-3.40
2022-12-05T10:30:23.651Z,-3.40
2022-12-05T10:32:48.347Z,-3.20
2022-12-05T10:34:51.013Z,-3.20
2022-12-05T10:37:21.571Z,-3.00
2022-12-05T10:39:23.676Z,-3.10
2022-12-05T10:41:25.744Z,-3.10
2022-12-05T10:43:31.534Z,-3.10
2022-12-05T10:45:43.191Z,-3.10
2022-12-05T10:47:45.478Z,-3.40
2022-12-05T10:49:47.588Z,-3.20
2022-12-05T10:51:49.972Z,-3.10
2022-12-05T10:53:52.802Z,-3.10
2022-12-05T10:56:28.844Z,-3.50
2022-12-05T10:58:23.892Z,-3.50
2022-12-05T11:00:37.190Z,-3.40
2022-12-05T11:02:40.781Z,-3.30
2022-12-05T11:04:45.099Z,-3.30
2022-12-05T11:06:57.694Z,-3.20
2022-12-05T11:09:24.211Z,-3.10
2022-12-05T11:11:28.991Z,-2.90
2022-12-05T11:13:32.046Z,-2.90
2022-12-05T11:15:54.956Z,-2.70
2022-12-05T11:18:17.154Z,-2.70
2022-12-05T11:20:19.060Z,-2.80
2022-12-05T11:22:23.463Z,-2.90
2022-12-05T11:24:30.581Z,-3.00
2022-12-05T11:26:37.715Z,-3.00
2022-12-05T11:28:40.508Z,-2.90
2022-12-05T11:31:04.276Z,-2.90
2022-12-05T11:33:20.294Z,-2.80
2022-12-05T11:35:29.014Z,-2.90
2022-12-05T11:37:43.441Z,-2.90
2022-12-05T11:39:45.356Z,-2.90
2022-12-05T11:41:47.051Z,-2.80
2022-12-05T11:44:24.112Z,-3.00
2022-12-05T11:47:02.865Z,-2.90
2022-12-05T11:49:31.845Z,-2.70
2022-12-05T11:51:52.521Z,-2.50
2022-12-05T11:54:13.122Z,-2.70
2022-12-05T11:56:26.872Z,-2.70
2022-12-05T11:58:54.440Z,-2.70
2022-12-05T12:01:23.667Z,-2.70
2022-12-05T12:04:03.226Z,-2.70
2022-12-05T12:06:13.907Z,-2.70
2022-12-05T12:08:42.759Z,-2.70
2022-12-05T12:11:08.020Z,-2.60
2022-12-05T12:13:18.151Z,-2.60
2022-12-05T12:15:43.328Z,-2.50
2022-12-05T12:17:57.811Z,-2.50
2022-12-05T12:20:38.279Z,-2.40
2022-12-05T12:22:45.938Z,-2.70
2022-12-05T12:25:47.048Z,-2.60
2022-12-05T12:31:05.126Z,-2.40
2022-12-05T12:33:25.547Z,-2.40
2022-12-05T12:35:41.815Z,-2.70
2022-12-05T12:38:08.503Z,-2.50
2022-12-05T12:40:22.329Z,-2.40
2022-12-05T12:42:40.392Z,-2.50
2022-12-05T12:45:25.402Z,-2.60
2022-12-05T12:48:39.935Z,-2.80
2022-12-05T12:51:19.792Z,-3.00
2022-12-05T12:54:07.270Z,-2.80
2022-12-05T12:57:03.548Z,-2.70
2022-12-05T13:02:54.360Z,-2.70
2022-12-05T13:05:56.458Z,-2.70
2022-12-05T13:11:25.567Z,-2.80
2022-12-05T13:17:44.454Z,-2.90
2022-12-05T13:23:47.770Z,-3.10
2022-12-05T13:29:15.584Z,-3.20
2022-12-05T13:32:17.240Z,-3.20
2022-12-05T13:38:01.104Z,-3.30
2022-12-05T13:40:22.349Z,-3.30
2022-12-05T13:42:31.955Z,-3.40
2022-12-05T13:48:46.862Z,-3.50
2022-12-05T13:51:34.530Z,-3.40
2022-12-05T14:26:09.395Z,-4.00
2022-12-05T14:31:50.405Z,-4.10
2022-12-05T14:35:07.000Z,-4.10
2022-12-05T15:19:45.879Z,-4.60
2022-12-05T15:21:58.904Z,-4.60
2022-12-05T15:24:39.519Z,-4.60
2022-12-05T15:26:54.476Z,-4.60
2022-12-05T15:29:20.891Z,-4.60
2022-12-05T15:32:02.063Z,-4.60
2022-12-05T15:34:36.163Z,-4.60
2022-12-05T15:37:16.916Z,-4.70
2022-12-05T15:45:40.187Z,-4.70
2022-12-05T15:47:43.669Z,-4.90
2022-12-05T15:49:46.771Z,-4.90
2022-12-05T15:52:26.480Z,-4.90
2022-12-05T15:54:35.384Z,-5.00
2022-12-05T15:56:50.897Z,-5.00
2022-12-05T15:59:05.812Z,-5.00
2022-12-05T16:01:24.944Z,-5.00
2022-12-05T16:03:48.149Z,-5.10
2022-12-05T16:05:58.304Z,-5.10
2022-12-05T16:08:08.596Z,-5.10
2022-12-05T16:10:15.496Z,-5.10
2022-12-05T16:12:24.722Z,-5.10
2022-12-05T16:14:58.843Z,-5.20
2022-12-05T16:17:01.155Z,-5.20
2022-12-05T16:19:18.287Z,-5.20
2022-12-05T16:21:37.401Z,-5.30
2022-12-05T16:23:44.057Z,-5.30
2022-12-05T16:25:45.999Z,-5.20
2022-12-05T16:28:11.331Z,-5.30
2022-12-05T16:30:13.233Z,-5.30
2022-12-05T16:32:24.455Z,-5.20
2022-12-05T16:34:32.515Z,-5.20
2022-12-05T16:36:37.095Z,-5.30
2022-12-05T16:38:41.043Z,-5.20
2022-12-05T16:41:01.118Z,-5.30
2022-12-05T16:43:05.593Z,-5.40
2022-12-05T16:45:38.037Z,-5.30
2022-12-05T16:47:46.819Z,-5.40
2022-12-05T16:49:48.914Z,-5.30
2022-12-05T16:52:14.717Z,-5.40
2022-12-05T16:54:16.599Z,-5.40
2022-12-05T16:56:31.556Z,-5.40
2022-12-05T16:58:35.592Z,-5.40
2022-12-05T17:00:37.640Z,-5.40
2022-12-05T17:02:55.431Z,-5.40
2022-12-05T17:04:57.824Z,-5.50
2022-12-05T17:07:00.120Z,-5.50
2022-12-05T17:09:02.114Z,-5.50
2022-12-05T17:11:27.402Z,-5.50
2022-12-05T17:13:30.708Z,-5.50
2022-12-05T17:15:32.944Z,-5.50
2022-12-05T17:17:34.952Z,-5.60
2022-12-05T17:19:36.921Z,-5.60
2022-12-05T17:21:42.059Z,-5.60
2022-12-05T17:23:47.852Z,-5.60
2022-12-05T17:25:55.726Z,-5.70
2022-12-05T17:27:58.846Z,-5.60
2022-12-05T17:30:01.011Z,-5.70
2022-12-05T17:32:03.639Z,-5.70
2022-12-05T17:34:13.873Z,-5.70
2022-12-05T17:36:17.517Z,-5.70
2022-12-05T17:38:19.455Z,-5.70
2022-12-05T17:40:21.427Z,-5.80
2022-12-05T17:42:28.957Z,-5.80
2022-12-05T17:44:30.950Z,-5.80
2022-12-05T17:46:33.632Z,-5.80
2022-12-05T17:48:35.708Z,-5.80
2022-12-05T17:50:39.762Z,-5.80
2022-12-05T17:52:42.024Z,-5.80
2022-12-05T17:54:44.082Z,-5.90
2022-12-05T17:56:45.988Z,-5.90
2022-12-05T17:58:48.001Z,-5.90
2022-12-05T18:00:50.008Z,-6.00
2022-12-05T20:14:51.759Z,-6.30
2022-12-05T20:16:53.979Z,-6.30
2022-12-05T20:18:59.025Z,-6.30
2022-12-05T20:21:02.002Z,-6.20
2022-12-05T20:23:03.864Z,-6.20
2022-12-05T20:25:05.707Z,-6.20
2022-12-05T20:27:07.776Z,-6.30
2022-12-05T20:29:10.414Z,-6.40
2022-12-05T20:31:16.374Z,-6.40
2022-12-05T20:33:18.322Z,-6.50
2022-12-05T20:35:24.297Z,-6.30
2022-12-05T20:37:28.783Z,-6.40
2022-12-05T20:39:33.201Z,-6.40
2022-12-05T20:41:35.596Z,-6.40
2022-12-05T20:43:38.314Z,-6.40
2022-12-05T20:45:40.207Z,-6.40
2022-12-05T20:47:42.104Z,-6.40
2022-12-05T20:49:44.009Z,-6.50
2022-12-05T20:51:47.788Z,-6.40
2022-12-05T20:53:50.615Z,-6.50
2022-12-05T20:55:52.477Z,-6.50
2022-12-05T20:57:54.642Z,-6.50
2022-12-05T20:59:56.790Z,-6.50
2022-12-05T21:01:59.160Z,-6.60
2022-12-05T21:04:02.510Z,-6.60
2022-12-05T21:06:15.914Z,-6.60
2022-12-05T21:08:18.698Z,-6.60
2022-12-05T21:10:21.562Z,-6.70
2022-12-05T21:12:23.628Z,-6.60
2022-12-05T21:14:25.525Z,-6.60
2022-12-05T21:16:28.382Z,-6.50
2022-12-05T21:18:30.664Z,-6.50
2022-12-05T21:20:35.359Z,-6.60
2022-12-05T21:22:40.964Z,-6.70
2022-12-05T21:24:42.891Z,-6.80
2022-12-05T21:26:44.834Z,-6.70
2022-12-05T21:28:46.779Z,-6.70
2022-12-05T21:30:48.805Z,-6.80
2022-12-05T21:32:50.723Z,-6.70
2022-12-05T21:34:52.591Z,-6.60
2022-12-05T21:36:54.619Z,-6.70
2022-12-05T21:38:56.821Z,-6.60
2022-12-05T21:40:59.303Z,-6.70
2022-12-05T21:43:01.282Z,-6.60
2022-12-05T21:45:03.297Z,-6.60
2022-12-05T21:47:05.198Z,-6.50
2022-12-05T21:49:07.113Z,-6.70
2022-12-05T21:51:09.686Z,-6.70
2022-12-05T21:53:11.607Z,-6.70
2022-12-05T21:55:13.505Z,-6.70
2022-12-05T21:57:15.601Z,-6.60
2022-12-05T21:59:17.529Z,-6.70
2022-12-05T22:01:22.872Z,-6.70
2022-12-05T22:03:24.802Z,-6.80
2022-12-05T22:05:26.692Z,-6.80
2022-12-05T22:07:28.564Z,-6.80
2022-12-05T22:09:30.486Z,-6.80
2022-12-05T22:11:32.437Z,-6.80
2022-12-05T22:13:34.337Z,-6.80
2022-12-05T22:15:36.295Z,-6.40
2022-12-05T22:17:38.756Z,-6.70
2022-12-05T22:19:40.666Z,-6.80
2022-12-05T22:21:43.587Z,-6.80
2022-12-05T22:23:46.306Z,-6.80
2022-12-05T22:26:02.024Z,-6.90
2022-12-05T22:28:04.036Z,-6.90
2022-12-05T22:30:06.825Z,-6.90
2022-12-05T22:32:08.694Z,-6.90
2022-12-05T22:34:10.588Z,-6.90
2022-12-05T22:36:15.454Z,-7.00
2022-12-05T22:38:17.436Z,-6.90
2022-12-05T22:40:20.250Z,-6.90
2022-12-05T22:42:22.127Z,-6.70
2022-12-05T22:44:24.055Z,-6.60
2022-12-05T22:46:28.426Z,-6.70
2022-12-05T22:48:30.334Z,-6.80
2022-12-05T22:50:32.193Z,-6.90
2022-12-05T22:52:34.070Z,-6.90
2022-12-05T22:54:35.941Z,-6.90
2022-12-05T22:56:37.870Z,-6.80
2022-12-05T22:58:40.491Z,-6.80
2022-12-05T23:00:42.773Z,-6.90
2022-12-05T23:02:44.819Z,-6.90
2022-12-05T23:04:46.740Z,-6.90
2022-12-05T23:07:03.393Z,-7.00
2022-12-05T23:09:11.205Z,-7.00
2022-12-05T23:11:13.115Z,-7.00
2022-12-05T23:13:14.989Z,-7.10
2022-12-05T23:15:16.903Z,-7.10
2022-12-05T23:17:18.873Z,-7.10
2022-12-05T23:19:20.898Z,-7.20
2022-12-05T23:21:27.904Z,-7.10
2022-12-05T23:23:34.261Z,-7.00
2022-12-05T23:25:36.109Z,-7.10
2022-12-05T23:27:38.016Z,-7.10
2022-12-05T23:29:42.809Z,-7.20
2022-12-05T23:31:46.508Z,-7.30
2022-12-05T23:33:51.457Z,-7.30
2022-12-05T23:35:54.161Z,-7.30
2022-12-05T23:37:56.106Z,-7.10
2022-12-05T23:39:58.165Z,-7.20
2022-12-05T23:42:01.358Z,-7.30
2022-12-05T23:44:03.429Z,-7.30
2022-12-05T23:46:06.423Z,-7.30
2022-12-05T23:48:08.272Z,-7.30
2022-12-05T23:50:10.493Z,-7.30
2022-12-05T23:52:14.806Z,-7.40
2022-12-05T23:54:22.141Z,-7.30
2022-12-05T23:56:28.582Z,-7.30
2022-12-05T23:58:33.370Z,-7.30
